sensor_id;sensor_type;location;lat;lon;timestamp;pressure;altitude;pressure_sealevel;temperature;humidity
39949;BME280;29070;48.102;-1.652;2023-05-18T00:01:34;102413.72;;;11.97;56.70
39949;BME280;29070;48.102;-1.652;2023-05-18T00:06:34;102411.84;;;11.89;57.05
39949;BME280;29070;48.102;-1.652;2023-05-18T00:11:35;102409.72;;;11.85;57.38
39949;BME280;29070;48.102;-1.652;2023-05-18T00:16:38;102405.91;;;11.79;57.68
39949;BME280;29070;48.102;-1.652;2023-05-18T00:21:42;102397.34;;;11.69;57.99
39949;BME280;29070;48.102;-1.652;2023-05-18T00:26:46;102398.81;;;11.63;58.06
39949;BME280;29070;48.102;-1.652;2023-05-18T00:31:46;102405.69;;;11.56;58.21
39949;BME280;29070;48.102;-1.652;2023-05-18T00:36:47;102400.25;;;11.49;58.25
39949;BME280;29070;48.102;-1.652;2023-05-18T00:41:47;102400.03;;;11.42;58.35
39949;BME280;29070;48.102;-1.652;2023-05-18T00:46:47;102402.97;;;11.31;58.55
39949;BME280;29070;48.102;-1.652;2023-05-18T00:51:49;102400.13;;;11.24;58.93
39949;BME280;29070;48.102;-1.652;2023-05-18T00:56:50;102400.94;;;11.17;59.10
39949;BME280;29070;48.102;-1.652;2023-05-18T01:01:50;102398.25;;;11.09;59.37
39949;BME280;29070;48.102;-1.652;2023-05-18T01:06:51;102400.84;;;11.00;59.34
39949;BME280;29070;48.102;-1.652;2023-05-18T01:12:05;102399.50;;;10.96;60.26
39949;BME280;29070;48.102;-1.652;2023-05-18T01:17:34;102394.06;;;10.90;60.90
39949;BME280;29070;48.102;-1.652;2023-05-18T01:28:08;102384.66;;;10.79;60.05
39949;BME280;29070;48.102;-1.652;2023-05-18T01:33:13;102382.78;;;10.71;60.26
39949;BME280;29070;48.102;-1.652;2023-05-18T01:38:25;102381.59;;;10.65;60.56
39949;BME280;29070;48.102;-1.652;2023-05-18T01:43:34;102381.22;;;10.60;61.26
39949;BME280;29070;48.102;-1.652;2023-05-18T01:48:36;102371.72;;;10.59;61.17
39949;BME280;29070;48.102;-1.652;2023-05-18T01:53:42;102381.41;;;10.59;61.34
39949;BME280;29070;48.102;-1.652;2023-05-18T01:58:44;102379.59;;;10.59;61.41
39949;BME280;29070;48.102;-1.652;2023-05-18T02:03:44;102387.78;;;10.56;61.36
39949;BME280;29070;48.102;-1.652;2023-05-18T02:08:45;102379.91;;;10.56;61.88
39949;BME280;29070;48.102;-1.652;2023-05-18T02:13:45;102379.38;;;10.53;62.01
39949;BME280;29070;48.102;-1.652;2023-05-18T02:18:45;102390.31;;;10.48;62.02
39949;BME280;29070;48.102;-1.652;2023-05-18T02:23:46;102392.94;;;10.48;62.05
39949;BME280;29070;48.102;-1.652;2023-05-18T02:28:46;102395.56;;;10.48;62.32
39949;BME280;29070;48.102;-1.652;2023-05-18T02:33:47;102394.63;;;10.49;62.41
39949;BME280;29070;48.102;-1.652;2023-05-18T02:38:47;102394.31;;;10.52;62.38
39949;BME280;29070;48.102;-1.652;2023-05-18T02:43:48;102397.91;;;10.51;62.63
39949;BME280;29070;48.102;-1.652;2023-05-18T02:48:48;102383.16;;;10.50;62.57
39949;BME280;29070;48.102;-1.652;2023-05-18T02:53:49;102395.28;;;10.51;62.75
39949;BME280;29070;48.102;-1.652;2023-05-18T02:58:50;102404.44;;;10.47;62.84
39949;BME280;29070;48.102;-1.652;2023-05-18T03:03:56;102398.69;;;10.43;62.96
39949;BME280;29070;48.102;-1.652;2023-05-18T03:08:57;102395.91;;;10.45;63.26
39949;BME280;29070;48.102;-1.652;2023-05-18T03:13:58;102395.38;;;10.41;63.32
39949;BME280;29070;48.102;-1.652;2023-05-18T03:18:58;102396.19;;;10.42;63.67
39949;BME280;29070;48.102;-1.652;2023-05-18T03:24:01;102394.38;;;10.42;63.48
39949;BME280;29070;48.102;-1.652;2023-05-18T03:29:02;102401.44;;;10.42;63.43
39949;BME280;29070;48.102;-1.652;2023-05-18T03:34:02;102388.03;;;10.45;64.04
39949;BME280;29070;48.102;-1.652;2023-05-18T03:39:04;102381.78;;;10.46;63.89
39949;BME280;29070;48.102;-1.652;2023-05-18T03:44:05;102377.38;;;10.46;63.97
39949;BME280;29070;48.102;-1.652;2023-05-18T03:49:05;102387.88;;;10.46;64.07
39949;BME280;29070;48.102;-1.652;2023-05-18T03:54:06;102391.47;;;10.45;64.20
39949;BME280;29070;48.102;-1.652;2023-05-18T03:59:07;102379.31;;;10.44;64.30
39949;BME280;29070;48.102;-1.652;2023-05-18T04:04:07;102366.38;;;10.43;64.38
39949;BME280;29070;48.102;-1.652;2023-05-18T04:09:08;102390.66;;;10.45;64.30
39949;BME280;29070;48.102;-1.652;2023-05-18T04:14:10;102378.34;;;10.45;64.46
39949;BME280;29070;48.102;-1.652;2023-05-18T04:19:11;102384.75;;;10.43;64.42
39949;BME280;29070;48.102;-1.652;2023-05-18T04:24:12;102386.00;;;10.39;64.72
39949;BME280;29070;48.102;-1.652;2023-05-18T04:29:13;102387.38;;;10.43;64.72
39949;BME280;29070;48.102;-1.652;2023-05-18T04:34:14;102389.00;;;10.44;64.87
39949;BME280;29070;48.102;-1.652;2023-05-18T04:39:16;102393.28;;;10.45;64.67
39949;BME280;29070;48.102;-1.652;2023-05-18T04:44:17;102391.16;;;10.48;65.02
39949;BME280;29070;48.102;-1.652;2023-05-18T04:49:19;102379.69;;;10.49;65.00
39949;BME280;29070;48.102;-1.652;2023-05-18T04:54:22;102377.91;;;10.50;65.07
39949;BME280;29070;48.102;-1.652;2023-05-18T04:59:23;102394.97;;;10.54;65.24
39949;BME280;29070;48.102;-1.652;2023-05-18T05:04:25;102384.47;;;10.54;65.25
39949;BME280;29070;48.102;-1.652;2023-05-18T05:09:25;102402.72;;;10.56;65.20
39949;BME280;29070;48.102;-1.652;2023-05-18T05:14:26;102396.97;;;10.60;65.41
39949;BME280;29070;48.102;-1.652;2023-05-18T05:19:26;102400.63;;;10.67;65.38
39949;BME280;29070;48.102;-1.652;2023-05-18T05:24:26;102408.44;;;10.77;65.32
39949;BME280;29070;48.102;-1.652;2023-05-18T05:29:27;102408.97;;;10.89;65.63
39949;BME280;29070;48.102;-1.652;2023-05-18T05:34:27;102414.59;;;10.94;65.62
39949;BME280;29070;48.102;-1.652;2023-05-18T05:39:27;102417.81;;;11.06;65.66
39949;BME280;29070;48.102;-1.652;2023-05-18T05:44:28;102414.38;;;11.14;65.59
39949;BME280;29070;48.102;-1.652;2023-05-18T05:49:28;102419.69;;;11.22;65.42
39949;BME280;29070;48.102;-1.652;2023-05-18T05:54:28;102424.66;;;11.33;65.58
39949;BME280;29070;48.102;-1.652;2023-05-18T05:59:29;102415.81;;;11.42;65.71
39949;BME280;29070;48.102;-1.652;2023-05-18T06:04:29;102421.13;;;11.51;65.48
39949;BME280;29070;48.102;-1.652;2023-05-18T06:09:29;102422.16;;;11.66;65.61
39949;BME280;29070;48.102;-1.652;2023-05-18T06:14:30;102419.19;;;11.69;65.45
39949;BME280;29070;48.102;-1.652;2023-05-18T06:19:30;102419.06;;;11.87;65.58
39949;BME280;29070;48.102;-1.652;2023-05-18T06:24:30;102420.63;;;12.06;65.33
39949;BME280;29070;48.102;-1.652;2023-05-18T06:29:31;102426.72;;;12.23;65.41
39949;BME280;29070;48.102;-1.652;2023-05-18T06:34:31;102424.25;;;12.46;65.21
39949;BME280;29070;48.102;-1.652;2023-05-18T06:39:32;102434.81;;;12.63;65.19
39949;BME280;29070;48.102;-1.652;2023-05-18T06:44:32;102428.81;;;12.85;65.11
39949;BME280;29070;48.102;-1.652;2023-05-18T06:49:34;102442.63;;;13.04;64.77
39949;BME280;29070;48.102;-1.652;2023-05-18T06:54:35;102440.59;;;13.22;64.58
39949;BME280;29070;48.102;-1.652;2023-05-18T06:59:36;102433.47;;;13.39;64.21
39949;BME280;29070;48.102;-1.652;2023-05-18T07:04:37;102438.50;;;13.57;64.00
39949;BME280;29070;48.102;-1.652;2023-05-18T07:09:38;102440.19;;;13.81;63.77
39949;BME280;29070;48.102;-1.652;2023-05-18T07:14:41;102445.22;;;13.99;63.66
39949;BME280;29070;48.102;-1.652;2023-05-18T07:19:41;102440.56;;;14.24;63.22
39949;BME280;29070;48.102;-1.652;2023-05-18T07:24:41;102435.91;;;14.49;63.18
39949;BME280;29070;48.102;-1.652;2023-05-18T07:29:42;102430.50;;;14.66;62.74
39949;BME280;29070;48.102;-1.652;2023-05-18T07:34:42;102433.44;;;14.86;62.50
39949;BME280;29070;48.102;-1.652;2023-05-18T07:39:44;102442.22;;;15.01;62.02
39949;BME280;29070;48.102;-1.652;2023-05-18T07:44:46;102418.03;;;15.19;61.82
39949;BME280;29070;48.102;-1.652;2023-05-18T07:49:47;102427.97;;;15.32;61.33
39949;BME280;29070;48.102;-1.652;2023-05-18T07:54:47;102423.34;;;15.56;61.17
39949;BME280;29070;48.102;-1.652;2023-05-18T07:59:48;102426.16;;;15.84;60.82
39949;BME280;29070;48.102;-1.652;2023-05-18T08:04:48;102425.00;;;16.15;60.38
39949;BME280;29070;48.102;-1.652;2023-05-18T08:09:48;102419.72;;;16.36;59.83
39949;BME280;29070;48.102;-1.652;2023-05-18T08:14:49;102416.25;;;16.64;59.42
39949;BME280;29070;48.102;-1.652;2023-05-18T08:19:50;102413.78;;;16.63;58.95
39949;BME280;29070;48.102;-1.652;2023-05-18T08:24:52;102411.25;;;16.83;57.99
39949;BME280;29070;48.102;-1.652;2023-05-18T08:29:53;102401.44;;;17.11;57.78
39949;BME280;29070;48.102;-1.652;2023-05-18T08:34:54;102404.84;;;17.40;57.41
39949;BME280;29070;48.102;-1.652;2023-05-18T08:39:54;102404.44;;;17.50;57.07
39949;BME280;29070;48.102;-1.652;2023-05-18T08:50:00;102391.91;;;17.99;55.66
39949;BME280;29070;48.102;-1.652;2023-05-18T08:55:05;102386.81;;;18.17;55.35
39949;BME280;29070;48.102;-1.652;2023-05-18T09:00:07;102386.16;;;18.42;54.70
39949;BME280;29070;48.102;-1.652;2023-05-18T09:05:09;102385.13;;;18.56;54.37
39949;BME280;29070;48.102;-1.652;2023-05-18T09:10:12;102378.38;;;18.60;54.00
39949;BME280;29070;48.102;-1.652;2023-05-18T09:15:14;102378.13;;;18.68;53.38
39949;BME280;29070;48.102;-1.652;2023-05-18T09:20:15;102379.59;;;18.64;52.82
39949;BME280;29070;48.102;-1.652;2023-05-18T09:25:17;102375.09;;;18.65;51.97
39949;BME280;29070;48.102;-1.652;2023-05-18T09:30:17;102384.41;;;19.01;51.72
39949;BME280;29070;48.102;-1.652;2023-05-18T09:35:18;102375.97;;;19.17;51.47
39949;BME280;29070;48.102;-1.652;2023-05-18T09:40:27;102370.38;;;19.32;49.70
39949;BME280;29070;48.102;-1.652;2023-05-18T09:45:28;102383.34;;;19.54;49.75
39949;BME280;29070;48.102;-1.652;2023-05-18T09:50:30;102361.47;;;19.84;49.14
39949;BME280;29070;48.102;-1.652;2023-05-18T09:55:30;102371.16;;;20.03;48.95
39949;BME280;29070;48.102;-1.652;2023-05-18T10:00:30;102378.63;;;20.19;48.28
39949;BME280;29070;48.102;-1.652;2023-05-18T10:05:32;102374.72;;;20.15;47.15
39949;BME280;29070;48.102;-1.652;2023-05-18T10:10:37;102368.03;;;20.31;46.41
39949;BME280;29070;48.102;-1.652;2023-05-18T10:15:54;102356.97;;;20.28;45.62
39949;BME280;29070;48.102;-1.652;2023-05-18T10:20:59;102355.38;;;20.27;45.79
39949;BME280;29070;48.102;-1.652;2023-05-18T10:26:03;102348.72;;;20.54;45.46
39949;BME280;29070;48.102;-1.652;2023-05-18T10:31:05;102345.19;;;20.79;44.42
39949;BME280;29070;48.102;-1.652;2023-05-18T10:36:07;102354.81;;;20.99;46.08
39949;BME280;29070;48.102;-1.652;2023-05-18T10:41:11;102347.16;;;21.02;45.43
39949;BME280;29070;48.102;-1.652;2023-05-18T10:46:12;102352.38;;;21.27;44.64
39949;BME280;29070;48.102;-1.652;2023-05-18T10:51:15;102344.22;;;21.22;43.95
39949;BME280;29070;48.102;-1.652;2023-05-18T10:56:17;102342.56;;;21.40;44.50
39949;BME280;29070;48.102;-1.652;2023-05-18T11:01:18;102342.84;;;21.50;43.45
39949;BME280;29070;48.102;-1.652;2023-05-18T11:06:23;102334.31;;;21.72;43.12
39949;BME280;29070;48.102;-1.652;2023-05-18T11:11:23;102334.44;;;21.77;43.38
39949;BME280;29070;48.102;-1.652;2023-05-18T11:16:33;102324.19;;;21.97;43.96
39949;BME280;29070;48.102;-1.652;2023-05-18T11:26:42;102310.63;;;22.34;42.44
39949;BME280;29070;48.102;-1.652;2023-05-18T11:31:49;102312.16;;;22.59;42.67
39949;BME280;29070;48.102;-1.652;2023-05-18T11:36:54;102303.09;;;22.72;41.33
39949;BME280;29070;48.102;-1.652;2023-05-18T11:42:06;102313.41;;;22.80;41.45
39949;BME280;29070;48.102;-1.652;2023-05-18T11:47:08;102301.88;;;22.79;41.82
39949;BME280;29070;48.102;-1.652;2023-05-18T11:52:20;102303.03;;;22.83;41.88
39949;BME280;29070;48.102;-1.652;2023-05-18T12:02:33;102297.41;;;22.56;41.30
39949;BME280;29070;48.102;-1.652;2023-05-18T12:07:34;102292.41;;;22.60;41.75
39949;BME280;29070;48.102;-1.652;2023-05-18T12:12:35;102292.13;;;22.73;41.60
39949;BME280;29070;48.102;-1.652;2023-05-18T12:17:47;102266.41;;;23.01;40.70
39949;BME280;29070;48.102;-1.652;2023-05-18T12:22:49;102273.44;;;23.19;41.36
39949;BME280;29070;48.102;-1.652;2023-05-18T12:27:53;102275.88;;;23.20;41.19
39949;BME280;29070;48.102;-1.652;2023-05-18T12:32:55;102252.06;;;23.07;40.79
39949;BME280;29070;48.102;-1.652;2023-05-18T12:37:57;102252.69;;;22.97;40.52
39949;BME280;29070;48.102;-1.652;2023-05-18T12:42:59;102250.00;;;22.97;40.44
39949;BME280;29070;48.102;-1.652;2023-05-18T12:48:07;102242.88;;;23.03;40.35
39949;BME280;29070;48.102;-1.652;2023-05-18T12:53:08;102241.44;;;23.12;40.12
39949;BME280;29070;48.102;-1.652;2023-05-18T12:58:15;102241.34;;;22.78;39.72
39949;BME280;29070;48.102;-1.652;2023-05-18T13:03:18;102242.66;;;22.47;40.38
39949;BME280;29070;48.102;-1.652;2023-05-18T13:08:23;102239.88;;;22.30;40.27
39949;BME280;29070;48.102;-1.652;2023-05-18T13:13:23;102252.59;;;22.11;41.10
39949;BME280;29070;48.102;-1.652;2023-05-18T13:18:26;102239.00;;;22.01;41.34
39949;BME280;29070;48.102;-1.652;2023-05-18T13:23:28;102242.59;;;21.83;41.33
39949;BME280;29070;48.102;-1.652;2023-05-18T13:28:29;102242.59;;;21.71;41.87
39949;BME280;29070;48.102;-1.652;2023-05-18T13:33:29;102234.94;;;21.51;41.89
39949;BME280;29070;48.102;-1.652;2023-05-18T13:38:30;102239.38;;;21.57;42.08
39949;BME280;29070;48.102;-1.652;2023-05-18T13:43:34;102234.59;;;21.59;42.44
39949;BME280;29070;48.102;-1.652;2023-05-18T13:48:34;102226.00;;;21.57;42.27
39949;BME280;29070;48.102;-1.652;2023-05-18T13:53:35;102231.16;;;21.40;42.37
39949;BME280;29070;48.102;-1.652;2023-05-18T13:58:35;102225.22;;;21.26;42.69
39949;BME280;29070;48.102;-1.652;2023-05-18T14:03:36;102217.69;;;21.23;42.57
39949;BME280;29070;48.102;-1.652;2023-05-18T14:08:36;102217.56;;;21.18;42.77
39949;BME280;29070;48.102;-1.652;2023-05-18T14:13:37;102207.47;;;21.20;42.89
39949;BME280;29070;48.102;-1.652;2023-05-18T14:18:37;102220.31;;;21.11;43.13
39949;BME280;29070;48.102;-1.652;2023-05-18T14:23:37;102209.03;;;20.98;42.97
39949;BME280;29070;48.102;-1.652;2023-05-18T14:28:38;102201.94;;;20.91;43.34
39949;BME280;29070;48.102;-1.652;2023-05-18T14:33:38;102198.47;;;20.91;43.69
39949;BME280;29070;48.102;-1.652;2023-05-18T14:38:38;102196.16;;;20.94;43.62
39949;BME280;29070;48.102;-1.652;2023-05-18T14:43:39;102184.00;;;21.22;43.77
39949;BME280;29070;48.102;-1.652;2023-05-18T14:48:39;102177.19;;;21.62;43.59
39949;BME280;29070;48.102;-1.652;2023-05-18T14:53:40;102178.38;;;21.66;43.48
39949;BME280;29070;48.102;-1.652;2023-05-18T14:58:40;102173.69;;;21.85;42.96
39949;BME280;29070;48.102;-1.652;2023-05-18T15:03:40;102170.16;;;21.96;43.07
39949;BME280;29070;48.102;-1.652;2023-05-18T15:08:41;102160.50;;;22.07;43.24
39949;BME280;29070;48.102;-1.652;2023-05-18T15:13:41;102158.06;;;22.05;42.47
39949;BME280;29070;48.102;-1.652;2023-05-18T15:18:43;102168.34;;;21.85;43.00
39949;BME280;29070;48.102;-1.652;2023-05-18T15:23:43;102157.91;;;21.72;43.39
39949;BME280;29070;48.102;-1.652;2023-05-18T15:28:43;102166.53;;;21.50;43.53
39949;BME280;29070;48.102;-1.652;2023-05-18T15:33:46;102157.31;;;21.34;43.98
39949;BME280;29070;48.102;-1.652;2023-05-18T15:38:46;102160.66;;;21.06;44.33
39949;BME280;29070;48.102;-1.652;2023-05-18T15:43:47;102147.06;;;21.19;44.34
39949;BME280;29070;48.102;-1.652;2023-05-18T15:48:47;102143.59;;;21.19;44.08
39949;BME280;29070;48.102;-1.652;2023-05-18T15:53:48;102138.38;;;21.24;44.05
39949;BME280;29070;48.102;-1.652;2023-05-18T15:58:48;102131.75;;;21.38;43.71
39949;BME280;29070;48.102;-1.652;2023-05-18T16:03:48;102123.78;;;21.50;43.51
39949;BME280;29070;48.102;-1.652;2023-05-18T16:08:49;102135.16;;;21.57;43.33
39949;BME280;29070;48.102;-1.652;2023-05-18T16:13:50;102125.84;;;21.72;43.74
39949;BME280;29070;48.102;-1.652;2023-05-18T16:18:54;102121.19;;;21.79;43.61
39949;BME280;29070;48.102;-1.652;2023-05-18T16:23:55;102120.94;;;21.80;43.02
39949;BME280;29070;48.102;-1.652;2023-05-18T16:28:55;102104.94;;;21.68;42.80
39949;BME280;29070;48.102;-1.652;2023-05-18T16:33:55;102135.63;;;21.54;42.84
39949;BME280;29070;48.102;-1.652;2023-05-18T16:38:56;102129.81;;;21.45;42.16
39949;BME280;29070;48.102;-1.652;2023-05-18T16:43:56;102120.50;;;21.36;41.60
39949;BME280;29070;48.102;-1.652;2023-05-18T16:48:57;102122.38;;;21.36;41.67
39949;BME280;29070;48.102;-1.652;2023-05-18T16:53:58;102113.28;;;21.13;41.39
39949;BME280;29070;48.102;-1.652;2023-05-18T16:58:59;102122.31;;;20.88;41.42
39949;BME280;29070;48.102;-1.652;2023-05-18T17:04:00;102141.69;;;20.84;41.52
39949;BME280;29070;48.102;-1.652;2023-05-18T17:09:00;102127.97;;;20.68;41.50
39949;BME280;29070;48.102;-1.652;2023-05-18T17:14:02;102126.94;;;20.51;40.92
39949;BME280;29070;48.102;-1.652;2023-05-18T17:19:03;102131.63;;;20.37;41.05
39949;BME280;29070;48.102;-1.652;2023-05-18T17:24:03;102126.50;;;20.24;41.17
39949;BME280;29070;48.102;-1.652;2023-05-18T17:29:04;102129.03;;;20.18;41.47
39949;BME280;29070;48.102;-1.652;2023-05-18T17:34:04;102127.94;;;20.08;41.36
39949;BME280;29070;48.102;-1.652;2023-05-18T17:39:05;102130.91;;;19.99;41.53
39949;BME280;29070;48.102;-1.652;2023-05-18T17:44:05;102125.41;;;19.76;41.39
39949;BME280;29070;48.102;-1.652;2023-05-18T17:49:06;102124.28;;;19.65;41.46
39949;BME280;29070;48.102;-1.652;2023-05-18T17:54:07;102134.56;;;19.61;41.86
39949;BME280;29070;48.102;-1.652;2023-05-18T17:59:07;102139.44;;;19.46;41.59
39949;BME280;29070;48.102;-1.652;2023-05-18T18:04:08;102144.22;;;19.37;41.86
39949;BME280;29070;48.102;-1.652;2023-05-18T18:09:08;102146.59;;;19.20;41.73
39949;BME280;29070;48.102;-1.652;2023-05-18T18:14:09;102156.41;;;19.01;41.73
39949;BME280;29070;48.102;-1.652;2023-05-18T18:19:14;102164.28;;;18.83;41.73
39949;BME280;29070;48.102;-1.652;2023-05-18T18:24:14;102165.97;;;18.71;41.77
39949;BME280;29070;48.102;-1.652;2023-05-18T18:29:15;102162.78;;;18.55;41.77
39949;BME280;29070;48.102;-1.652;2023-05-18T18:34:15;102171.44;;;18.44;41.82
39949;BME280;29070;48.102;-1.652;2023-05-18T18:39:15;102170.28;;;18.26;41.63
39949;BME280;29070;48.102;-1.652;2023-05-18T18:44:16;102170.75;;;18.10;41.86
39949;BME280;29070;48.102;-1.652;2023-05-18T18:49:16;102178.94;;;17.95;41.71
39949;BME280;29070;48.102;-1.652;2023-05-18T18:54:16;102178.56;;;17.78;41.73
39949;BME280;29070;48.102;-1.652;2023-05-18T18:59:17;102191.25;;;17.69;41.97
39949;BME280;29070;48.102;-1.652;2023-05-18T19:04:17;102203.50;;;17.50;41.94
39949;BME280;29070;48.102;-1.652;2023-05-18T19:09:18;102204.50;;;17.36;42.31
39949;BME280;29070;48.102;-1.652;2023-05-18T19:14:18;102214.09;;;17.17;42.26
39949;BME280;29070;48.102;-1.652;2023-05-18T19:19:18;102228.34;;;16.96;42.30
39949;BME280;29070;48.102;-1.652;2023-05-18T19:24:19;102227.03;;;16.78;42.43
39949;BME280;29070;48.102;-1.652;2023-05-18T19:29:19;102218.41;;;16.56;42.55
39949;BME280;29070;48.102;-1.652;2023-05-18T19:34:21;102216.72;;;16.42;42.54
39949;BME280;29070;48.102;-1.652;2023-05-18T19:39:21;102224.75;;;16.20;42.40
39949;BME280;29070;48.102;-1.652;2023-05-18T19:44:22;102231.56;;;16.01;42.84
39949;BME280;29070;48.102;-1.652;2023-05-18T19:49:22;102245.97;;;15.92;42.55
39949;BME280;29070;48.102;-1.652;2023-05-18T19:54:23;102252.53;;;15.75;42.94
39949;BME280;29070;48.102;-1.652;2023-05-18T19:59:23;102247.13;;;15.61;43.16
39949;BME280;29070;48.102;-1.652;2023-05-18T20:04:23;102260.84;;;15.50;43.42
39949;BME280;29070;48.102;-1.652;2023-05-18T20:09:27;102268.50;;;15.38;43.59
39949;BME280;29070;48.102;-1.652;2023-05-18T20:14:28;102272.44;;;15.28;43.58
39949;BME280;29070;48.102;-1.652;2023-05-18T20:19:30;102269.78;;;15.06;43.49
39949;BME280;29070;48.102;-1.652;2023-05-18T20:24:30;102272.00;;;14.87;43.68
39949;BME280;29070;48.102;-1.652;2023-05-18T20:29:31;102277.66;;;14.70;44.03
39949;BME280;29070;48.102;-1.652;2023-05-18T20:34:32;102287.50;;;14.61;44.40
39949;BME280;29070;48.102;-1.652;2023-05-18T20:39:32;102291.22;;;14.52;44.63
39949;BME280;29070;48.102;-1.652;2023-05-18T20:44:32;102290.31;;;14.44;44.46
39949;BME280;29070;48.102;-1.652;2023-05-18T20:49:34;102292.97;;;14.29;44.93
39949;BME280;29070;48.102;-1.652;2023-05-18T20:54:34;102307.41;;;14.19;45.22
39949;BME280;29070;48.102;-1.652;2023-05-18T20:59:34;102315.97;;;14.06;45.62
39949;BME280;29070;48.102;-1.652;2023-05-18T21:04:35;102314.56;;;13.95;45.98
39949;BME280;29070;48.102;-1.652;2023-05-18T21:09:35;102314.31;;;13.82;46.23
39949;BME280;29070;48.102;-1.652;2023-05-18T21:14:35;102322.66;;;13.70;46.66
39949;BME280;29070;48.102;-1.652;2023-05-18T21:19:36;102333.44;;;13.61;47.04
39949;BME280;29070;48.102;-1.652;2023-05-18T21:24:36;102318.03;;;13.49;47.26
39949;BME280;29070;48.102;-1.652;2023-05-18T21:29:36;102326.50;;;13.37;47.48
39949;BME280;29070;48.102;-1.652;2023-05-18T21:34:37;102334.44;;;13.28;47.94
39949;BME280;29070;48.102;-1.652;2023-05-18T21:39:37;102331.69;;;13.22;48.42
39949;BME280;29070;48.102;-1.652;2023-05-18T21:44:40;102322.31;;;13.11;48.53
39949;BME280;29070;48.102;-1.652;2023-05-18T21:49:41;102326.50;;;12.97;48.83
39949;BME280;29070;48.102;-1.652;2023-05-18T21:54:43;102325.06;;;12.86;49.22
39949;BME280;29070;48.102;-1.652;2023-05-18T21:59:43;102325.09;;;12.78;49.72
39949;BME280;29070;48.102;-1.652;2023-05-18T22:04:43;102327.44;;;12.65;49.89
39949;BME280;29070;48.102;-1.652;2023-05-18T22:09:44;102330.09;;;12.56;50.17
39949;BME280;29070;48.102;-1.652;2023-05-18T22:14:44;102332.91;;;12.47;50.59
39949;BME280;29070;48.102;-1.652;2023-05-18T22:19:50;102345.94;;;12.40;50.98
39949;BME280;29070;48.102;-1.652;2023-05-18T22:24:50;102350.38;;;12.31;51.14
39949;BME280;29070;48.102;-1.652;2023-05-18T22:29:51;102341.34;;;12.26;51.46
39949;BME280;29070;48.102;-1.652;2023-05-18T22:34:51;102344.28;;;12.23;51.66
39949;BME280;29070;48.102;-1.652;2023-05-18T22:39:52;102347.44;;;12.18;52.01
39949;BME280;29070;48.102;-1.652;2023-05-18T22:44:52;102342.66;;;12.13;52.07
39949;BME280;29070;48.102;-1.652;2023-05-18T22:49:53;102345.59;;;12.10;52.61
39949;BME280;29070;48.102;-1.652;2023-05-18T22:54:53;102348.91;;;12.04;52.74
39949;BME280;29070;48.102;-1.652;2023-05-18T22:59:53;102347.06;;;11.96;53.03
39949;BME280;29070;48.102;-1.652;2023-05-18T23:04:54;102351.84;;;11.93;53.32
39949;BME280;29070;48.102;-1.652;2023-05-18T23:09:54;102333.25;;;11.86;53.59
39949;BME280;29070;48.102;-1.652;2023-05-18T23:14:55;102341.31;;;11.85;53.82
39949;BME280;29070;48.102;-1.652;2023-05-18T23:19:59;102342.78;;;11.79;54.35
39949;BME280;29070;48.102;-1.652;2023-05-18T23:25:02;102347.88;;;11.72;54.30
39949;BME280;29070;48.102;-1.652;2023-05-18T23:30:04;102354.44;;;11.68;54.46
39949;BME280;29070;48.102;-1.652;2023-05-18T23:35:05;102357.69;;;11.62;55.05
39949;BME280;29070;48.102;-1.652;2023-05-18T23:40:10;102355.72;;;11.56;55.18
39949;BME280;29070;48.102;-1.652;2023-05-18T23:45:12;102354.38;;;11.52;55.22
39949;BME280;29070;48.102;-1.652;2023-05-18T23:50:12;102350.13;;;11.51;55.48
39949;BME280;29070;48.102;-1.652;2023-05-18T23:55:13;102352.72;;;11.42;55.72
